Time;durP1;ratioP1;P1;durP2;ratioP2;P2;SDS_P1;SDS_P2;PMS_P1;PMS_P2;Temp;Humidity;BMP_temperature;BMP_pressure;BME280_temperature;BME280_humidity;BME280_pressure;Samples;Min_cycle;Max_cycle;Signal;HPM_P1;HPM_P2
2023/10/05 00:01:46;;;;;;;1.40;1.02;;;16.00;44.50;;;;;;5073966;28;20169;-50
2023/10/05 00:04:16;;;;;;;2.67;0.90;;;16.00;44.50;;;;;;5074252;28;20207;-52
2023/10/05 00:06:42;;;;;;;2.33;1.45;;;15.80;43.60;;;;;;5073866;28;20168;-51
2023/10/05 00:09:16;;;;;;;2.25;1.98;;;15.80;44.00;;;;;;5073750;28;20192;-51
2023/10/05 00:11:42;;;;;;;2.17;1.35;;;15.90;43.80;;;;;;5073262;28;20677;-51
2023/10/05 00:14:10;;;;;;;1.93;1.23;;;15.90;44.80;;;;;;5072281;28;20209;-50
2023/10/05 00:16:36;;;;;;;1.83;1.10;;;15.90;44.80;;;;;;5072488;28;20287;-54
2023/10/05 00:19:12;;;;;;;2.45;2.15;;;15.80;44.00;;;;;;5072509;28;20199;-49
2023/10/05 00:21:52;;;;;;;5.32;2.42;;;15.80;44.00;;;;;;5072695;28;20569;-52
2023/10/05 00:24:23;;;;;;;1.88;1.73;;;15.80;44.60;;;;;;5072610;28;20259;-49
2023/10/05 00:26:49;;;;;;;1.38;0.93;;;15.90;44.60;;;;;;5072360;28;20168;-49
2023/10/05 00:29:19;;;;;;;3.17;2.00;;;15.90;44.10;;;;;;5072296;28;20219;-50
2023/10/05 00:31:47;;;;;;;3.95;2.00;;;15.80;44.10;;;;;;5072330;28;20173;-50
2023/10/05 00:34:24;;;;;;;1.92;1.23;;;15.80;44.70;;;;;;5072088;28;20228;-51
2023/10/05 00:36:51;;;;;;;2.95;1.48;;;15.70;44.00;;;;;;5070978;28;20200;-50
2023/10/05 00:39:19;;;;;;;3.65;2.35;;;15.70;43.90;;;;;;5072031;28;20193;-48
2023/10/05 00:44:30;;;;;;;3.10;2.08;;;15.60;44.20;;;;;;5072007;28;20263;-48
2023/10/05 00:47:00;;;;;;;10.38;2.53;;;15.60;44.10;;;;;;5072101;28;20180;-49
2023/10/05 00:52:23;;;;;;;4.70;1.45;;;15.60;44.10;;;;;;5072207;28;20183;-51
2023/10/05 00:54:51;;;;;;;1.98;1.40;;;15.60;44.10;;;;;;5071910;28;20204;-54
2023/10/05 00:57:24;;;;;;;2.25;1.33;;;15.60;43.90;;;;;;5071941;28;20161;-51
2023/10/05 01:00:13;;;;;;;1.75;1.20;;;15.70;44.70;;;;;;5071833;28;20192;-51
2023/10/05 01:02:45;;;;;;;1.65;0.95;;;15.70;44.50;;;;;;5072023;28;20168;-52
2023/10/05 01:05:25;;;;;;;3.55;1.45;;;15.70;43.80;;;;;;5071920;28;20523;-53
2023/10/05 01:07:56;;;;;;;2.45;1.38;;;15.70;44.00;;;;;;5071903;28;20259;-54
2023/10/05 01:10:29;;;;;;;1.95;1.45;;;15.70;43.80;;;;;;5071838;28;20191;-52
2023/10/05 01:12:56;;;;;;;2.20;1.60;;;15.80;44.40;;;;;;5071826;28;20646;-52
2023/10/05 01:15:25;;;;;;;1.95;1.30;;;15.80;43.50;;;;;;5071702;28;20204;-54
2023/10/05 01:17:52;;;;;;;1.73;0.93;;;15.80;44.10;;;;;;5071863;28;20255;-51
2023/10/05 01:22:49;;;;;;;7.43;3.33;;;15.90;43.50;;;;;;5071484;28;20165;-53
2023/10/05 01:25:15;;;;;;;1.88;1.00;;;15.90;43.50;;;;;;5072845;28;20176;-53
2023/10/05 01:27:46;;;;;;;1.40;1.00;;;15.90;43.40;;;;;;5075705;28;20167;-52
2023/10/05 01:30:15;;;;;;;1.80;1.02;;;15.90;43.70;;;;;;5075586;28;20638;-52
2023/10/05 01:32:41;;;;;;;3.15;1.23;;;16.00;43.40;;;;;;5075539;28;20256;-53
2023/10/05 01:35:09;;;;;;;2.75;1.10;;;16.00;43.50;;;;;;5075518;28;20207;-51
2023/10/05 01:37:36;;;;;;;1.90;1.27;;;15.90;43.50;;;;;;5075431;28;20165;-55
2023/10/05 01:40:19;;;;;;;2.80;1.10;;;15.90;43.40;;;;;;5075799;28;20222;-52
2023/10/05 01:42:51;;;;;;;1.90;1.27;;;15.90;43.50;;;;;;5075476;28;20172;-50
2023/10/05 01:45:17;;;;;;;3.50;2.30;;;15.80;43.20;;;;;;5075410;28;20181;-48
2023/10/05 01:47:44;;;;;;;3.00;1.60;;;15.80;43.90;;;;;;5073994;28;20171;-51
2023/10/05 01:50:22;;;;;;;2.70;1.70;;;15.80;43.70;;;;;;5075176;28;20685;-51
2023/10/05 01:53:34;;;;;;;3.75;1.60;;;15.80;44.30;;;;;;5073741;28;20202;-48
2023/10/05 01:55:44;;;;;;;3.65;2.05;;;15.80;43.70;;;;;;5077462;28;20550;-51
2023/10/05 01:58:13;;;;;;;3.28;0.95;;;15.80;44.50;;;;;;5074923;28;20697;-49
2023/10/05 02:00:40;;;;;;;1.98;1.25;;;15.90;43.60;;;;;;5075035;28;20738;-54
2023/10/05 02:03:12;;;;;;;1.85;1.15;;;15.80;43.60;;;;;;5074749;28;20267;-51
2023/10/05 02:05:38;;;;;;;3.40;2.05;;;15.80;44.00;;;;;;5073879;28;20584;-54
2023/10/05 02:08:05;;;;;;;1.80;1.03;;;15.80;44.70;;;;;;5075003;28;20193;-53
2023/10/05 02:10:39;;;;;;;2.30;1.60;;;15.80;44.70;;;;;;5075005;28;20173;-55
2023/10/05 02:13:05;;;;;;;2.47;1.70;;;15.70;43.90;;;;;;5074886;28;20241;-52
2023/10/05 02:15:31;;;;;;;1.40;1.10;;;15.70;44.60;;;;;;5074831;28;20157;-54
2023/10/05 02:18:12;;;;;;;2.57;2.10;;;15.70;44.70;;;;;;5074794;28;20457;-52
2023/10/05 02:20:42;;;;;;;2.75;1.65;;;15.70;44.60;;;;;;5074744;28;20165;-50
2023/10/05 02:25:54;;;;;;;1.50;0.80;;;15.70;44.80;;;;;;5074642;28;20172;-52
2023/10/05 02:28:25;;;;;;;1.60;1.02;;;15.80;44.80;;;;;;5074623;28;20224;-54
2023/10/05 02:30:54;;;;;;;4.88;2.05;;;15.70;44.90;;;;;;5074576;28;20207;-52
2023/10/05 02:33:27;;;;;;;1.50;0.95;;;15.80;44.80;;;;;;5074253;28;20650;-51
2023/10/05 02:36:09;;;;;;;1.45;1.10;;;15.80;44.90;;;;;;5073942;28;20248;-52
2023/10/05 02:38:36;;;;;;;2.85;1.88;;;15.80;44.70;;;;;;5074467;28;20543;-53
2023/10/05 02:41:05;;;;;;;1.75;1.48;;;15.70;45.20;;;;;;5074309;28;20218;-55
2023/10/05 02:43:38;;;;;;;2.05;1.13;;;15.80;45.10;;;;;;5074150;28;20169;-53
2023/10/05 02:46:11;;;;;;;1.63;0.98;;;15.80;44.80;;;;;;5074232;28;20172;-51
2023/10/05 02:48:39;;;;;;;3.50;1.35;;;15.80;44.90;;;;;;5074546;28;20197;-52
2023/10/05 02:51:06;;;;;;;2.10;1.85;;;15.80;44.70;;;;;;5074186;28;20570;-52
2023/10/05 02:53:40;;;;;;;2.92;2.40;;;15.80;44.50;;;;;;5073932;28;20275;-54
2023/10/05 02:56:29;;;;;;;1.88;1.25;;;15.80;44.30;;;;;;5074093;28;20182;-53
2023/10/05 02:58:56;;;;;;;3.38;1.40;;;15.80;44.50;;;;;;5074000;28;20670;-52
2023/10/05 03:01:23;;;;;;;1.45;0.82;;;15.80;44.70;;;;;;5074078;28;20222;-52
2023/10/05 03:03:51;;;;;;;1.98;1.30;;;15.80;44.70;;;;;;5073607;28;20193;-52
2023/10/05 03:06:17;;;;;;;4.88;2.03;;;15.80;44.90;;;;;;5073974;28;20177;-52
2023/10/05 03:08:49;;;;;;;5.40;2.35;;;15.80;45.00;;;;;;5073800;28;20198;-54
2023/10/05 03:11:15;;;;;;;7.07;1.38;;;15.80;45.10;;;;;;5073655;28;20677;-51
2023/10/05 03:13:41;;;;;;;1.30;1.00;;;15.80;44.90;;;;;;5073557;28;20271;-52
2023/10/05 03:16:10;;;;;;;2.20;1.40;;;15.70;44.60;;;;;;5073669;28;20649;-51
2023/10/05 03:18:42;;;;;;;3.88;1.80;;;15.70;44.70;;;;;;5073558;28;20214;-54
2023/10/05 03:21:13;;;;;;;1.33;0.93;;;15.70;44.80;;;;;;5073477;28;20256;-51
2023/10/05 03:23:41;;;;;;;2.22;1.27;;;15.60;44.70;;;;;;5073409;28;20249;-53
2023/10/05 03:26:11;;;;;;;6.45;2.15;;;15.60;45.10;;;;;;5073513;28;20215;-52
2023/10/05 03:28:37;;;;;;;1.40;0.95;;;15.60;44.80;;;;;;5073385;28;20210;-51
2023/10/05 03:31:24;;;;;;;2.80;1.27;;;15.60;45.00;;;;;;5073438;28;20204;-54
2023/10/05 03:33:52;;;;;;;1.33;0.80;;;15.60;44.80;;;;;;5073193;28;20191;-54
2023/10/05 03:36:18;;;;;;;1.40;1.00;;;15.60;45.00;;;;;;5073152;28;20164;-51
2023/10/05 03:38:44;;;;;;;1.95;1.30;;;15.60;45.30;;;;;;5073175;28;20262;-54
2023/10/05 03:41:15;;;;;;;1.70;1.05;;;15.50;45.00;;;;;;5072999;28;20172;-54
2023/10/05 03:43:43;;;;;;;1.40;1.00;;;15.50;45.10;;;;;;5072063;28;20192;-53
2023/10/05 03:46:09;;;;;;;1.75;1.35;;;15.50;45.10;;;;;;5073071;28;20678;-52
2023/10/05 03:48:38;;;;;;;5.43;2.08;;;15.50;45.10;;;;;;5072085;28;20203;-51
2023/10/05 03:51:15;;;;;;;3.25;1.67;;;15.60;45.10;;;;;;5073143;28;20181;-53
2023/10/05 03:53:48;;;;;;;2.25;1.58;;;15.40;44.90;;;;;;5072788;28;20196;-56
2023/10/05 03:56:18;;;;;;;1.20;0.80;;;15.40;44.80;;;;;;5072953;28;20173;-52
2023/10/05 03:58:45;;;;;;;4.13;1.33;;;15.40;45.00;;;;;;5073185;28;20669;-52
2023/10/05 04:01:12;;;;;;;4.50;2.55;;;15.30;44.40;;;;;;5072537;28;20177;-53
2023/10/05 04:03:38;;;;;;;2.80;1.75;;;15.20;44.30;;;;;;5072622;28;20191;-55
2023/10/05 04:06:24;;;;;;;2.05;1.85;;;15.20;44.20;;;;;;5072787;28;20172;-51
2023/10/05 04:09:00;;;;;;;4.00;1.15;;;15.20;44.30;;;;;;5072702;28;20601;-54
2023/10/05 04:11:27;;;;;;;5.43;1.67;;;15.10;44.30;;;;;;5072524;28;20184;-50
2023/10/05 04:13:54;;;;;;;1.90;1.42;;;15.10;44.50;;;;;;5072331;28;20671;-53
2023/10/05 04:16:28;;;;;;;2.97;1.75;;;15.10;44.40;;;;;;5072561;28;20609;-52
2023/10/05 04:18:55;;;;;;;2.38;1.08;;;15.10;44.80;;;;;;5072372;28;20618;-51
2023/10/05 04:21:24;;;;;;;3.40;1.60;;;15.00;44.50;;;;;;5072650;28;20215;-53
2023/10/05 04:23:51;;;;;;;1.50;0.95;;;15.00;44.60;;;;;;5072320;28;20248;-53
2023/10/05 04:26:21;;;;;;;3.88;2.53;;;15.00;44.80;;;;;;5072335;28;20176;-52
2023/10/05 04:28:57;;;;;;;8.65;3.25;;;15.00;44.80;;;;;;5072380;28;20537;-55
2023/10/05 04:31:25;;;;;;;2.50;2.30;;;15.10;45.00;;;;;;5072434;28;20213;-52
2023/10/05 04:33:52;;;;;;;3.25;1.73;;;15.10;44.80;;;;;;5070857;28;20701;-55
2023/10/05 04:36:24;;;;;;;2.00;1.30;;;15.20;44.70;;;;;;5072343;28;20253;-52
2023/10/05 04:38:54;;;;;;;3.22;1.65;;;15.20;44.80;;;;;;5072176;28;20185;-51
2023/10/05 04:41:31;;;;;;;5.43;2.00;;;15.30;44.90;;;;;;5070823;28;20524;-54
2023/10/05 04:43:58;;;;;;;4.03;1.90;;;15.30;45.00;;;;;;5072219;28;20179;-54
2023/10/05 04:46:24;;;;;;;2.67;1.42;;;15.20;44.70;;;;;;5072210;28;20173;-51
2023/10/05 04:49:05;;;;;;;2.67;2.05;;;15.20;44.70;;;;;;5072060;28;20216;-51
2023/10/05 04:51:36;;;;;;;31.60;2.80;;;15.20;44.80;;;;;;5072165;28;20215;-53
2023/10/05 04:54:02;;;;;;;4.85;2.10;;;15.30;44.90;;;;;;5072070;28;20200;-51
2023/10/05 04:57:22;;;;;;;8.43;3.30;;;15.30;44.90;;;;;;5072071;28;20772;-53
2023/10/05 05:07:08;;;;;;;3.92;1.45;;;15.40;44.40;;;;;;5072662;28;20187;-52
2023/10/05 05:09:38;;;;;;;4.20;1.42;;;15.40;44.50;;;;;;5072288;28;20181;-51
2023/10/05 05:12:08;;;;;;;4.05;1.80;;;15.50;44.60;;;;;;5071844;28;20188;-55
2023/10/05 05:14:42;;;;;;;3.97;1.45;;;15.50;44.40;;;;;;5071997;28;20204;-50
2023/10/05 05:17:11;;;;;;;10.48;3.13;;;15.50;44.70;;;;;;5072093;28;20706;-52
2023/10/05 05:19:41;;;;;;;5.72;1.60;;;;;;;;;;5071735;28;20184;-54
2023/10/05 05:22:08;;;;;;;4.18;1.50;;;15.60;44.60;;;;;;5071892;28;20179;-56
2023/10/05 05:24:34;;;;;;;5.63;1.92;;;;;;;;;;5071523;28;20566;-50
2023/10/05 05:27:03;;;;;;;4.38;1.60;;;15.50;44.90;;;;;;5071892;28;20250;-53
2023/10/05 05:29:30;;;;;;;3.50;1.10;;;15.50;44.90;;;;;;5070508;28;20249;-53
2023/10/05 05:31:57;;;;;;;4.63;1.25;;;;;;;;;;5071841;28;20516;-52
2023/10/05 05:34:25;;;;;;;5.15;1.77;;;15.60;44.60;;;;;;5071405;28;20197;-54
2023/10/05 05:36:55;;;;;;;5.00;1.85;;;;;;;;;;5071792;28;20230;-53
2023/10/05 05:39:22;;;;;;;3.80;1.52;;;15.60;44.80;;;;;;5071563;28;20188;-51
2023/10/05 05:41:59;;;;;;;5.22;2.10;;;15.60;45.30;;;;;;5071650;28;20518;-54
2023/10/05 05:44:26;;;;;;;8.18;1.85;;;15.60;45.10;;;;;;5071606;28;20169;-53
2023/10/05 05:46:55;;;;;;;7.15;2.35;;;15.60;45.40;;;;;;5071769;28;20255;-52
2023/10/05 05:49:21;;;;;;;5.20;1.92;;;15.60;45.40;;;;;;5071688;28;20596;-55
2023/10/05 05:51:47;;;;;;;6.22;2.03;;;15.70;45.30;;;;;;5071576;28;20175;-55
2023/10/05 05:54:13;;;;;;;3.93;1.90;;;15.70;45.00;;;;;;5071345;28;20208;-51
2023/10/05 05:56:42;;;;;;;3.60;1.27;;;15.70;45.20;;;;;;5070359;28;20410;-55
2023/10/05 05:59:08;;;;;;;3.53;2.00;;;15.70;45.30;;;;;;5071375;28;20578;-55
2023/10/05 06:01:37;;;;;;;6.40;2.53;;;15.80;45.40;;;;;;5071375;28;20172;-53
2023/10/05 06:04:03;;;;;;;5.05;1.77;;;15.90;45.50;;;;;;5071249;28;20969;-53
2023/10/05 06:06:29;;;;;;;4.53;2.75;;;15.80;45.60;;;;;;5071312;28;20258;-53
2023/10/05 06:08:56;;;;;;;3.08;1.95;;;15.90;45.50;;;;;;5071401;28;20216;-51
2023/10/05 06:11:23;;;;;;;4.25;2.22;;;15.90;45.70;;;;;;5072298;28;20207;-55
2023/10/05 06:13:49;;;;;;;3.75;1.98;;;16.00;45.50;;;;;;5074720;28;20192;-55
2023/10/05 06:16:15;;;;;;;5.70;2.45;;;16.00;45.90;;;;;;5074908;28;20183;-52
2023/10/05 06:18:41;;;;;;;2.63;2.10;;;16.10;45.60;;;;;;5074823;28;20272;-55
2023/10/05 06:21:07;;;;;;;5.07;1.60;;;16.10;45.60;;;;;;5075018;28;20191;-53
2023/10/05 06:23:36;;;;;;;2.53;1.30;;;16.20;45.80;;;;;;5073411;28;20642;-52
2023/10/05 06:26:02;;;;;;;6.10;1.52;;;16.20;45.60;;;;;;5074785;28;20485;-52
2023/10/05 06:28:29;;;;;;;4.97;2.08;;;16.20;45.90;;;;;;5074715;28;20204;-52
2023/10/05 06:30:56;;;;;;;4.55;2.25;;;16.30;45.60;;;;;;5074671;28;20230;-57
2023/10/05 06:33:22;;;;;;;3.95;2.05;;;16.30;45.70;;;;;;5074181;28;20187;-52
2023/10/05 06:35:48;;;;;;;4.60;3.07;;;16.30;45.90;;;;;;5074581;28;20157;-51
2023/10/05 06:38:16;;;;;;;3.70;1.35;;;16.40;45.70;;;;;;5074389;28;20184;-55
2023/10/05 06:40:42;;;;;;;5.93;2.05;;;16.50;45.80;;;;;;5074488;28;20168;-53
2023/10/05 06:43:08;;;;;;;4.38;2.03;;;;;;;;;;5074264;28;20253;-51
2023/10/05 06:45:37;;;;;;;3.63;1.50;;;16.70;45.20;;;;;;5074420;28;20228;-52
2023/10/05 06:48:06;;;;;;;5.50;2.28;;;16.80;45.20;;;;;;5074170;28;20193;-56
2023/10/05 06:50:32;;;;;;;8.48;2.30;;;16.90;44.90;;;;;;5074247;28;20203;-52
2023/10/05 06:52:58;;;;;;;10.33;4.37;;;17.00;44.70;;;;;;5056187;28;20204;-55
2023/10/05 06:55:25;;;;;;;5.23;1.50;;;17.10;44.80;;;;;;5074197;28;20238;-52
2023/10/05 06:57:51;;;;;;;9.32;2.40;;;17.10;44.60;;;;;;5074161;28;20967;-56
2023/10/05 07:00:20;;;;;;;10.30;2.67;;;;;;;;;;5074036;28;20181;-52
2023/10/05 07:02:47;;;;;;;5.20;1.45;;;17.20;44.30;;;;;;5072632;28;20161;-49
2023/10/05 07:05:14;;;;;;;6.65;2.17;;;;;;;;;;5073963;28;20180;-55
2023/10/05 07:07:43;;;;;;;8.18;1.95;;;;;;;;;;5073760;28;20173;-55
2023/10/05 07:10:10;;;;;;;4.45;1.38;;;;;;;;;;5073875;28;20169;-53
2023/10/05 07:12:41;;;;;;;3.75;1.63;;;17.50;44.10;;;;;;5073833;28;20173;-56
2023/10/05 07:15:08;;;;;;;5.03;1.60;;;;;;;;;;5073718;28;20212;-53
2023/10/05 07:17:34;;;;;;;5.95;2.30;;;;;;;;;;5073774;28;20186;-52
2023/10/05 07:20:01;;;;;;;5.95;1.50;;;;;;;;;;5073752;28;20194;-54
2023/10/05 07:22:27;;;;;;;7.63;1.83;;;17.80;43.80;;;;;;5073434;28;20194;-55
2023/10/05 07:24:53;;;;;;;6.90;3.27;;;18.00;43.90;;;;;;5073344;28;20675;-52
2023/10/05 07:27:19;;;;;;;8.43;1.95;;;18.10;43.80;;;;;;5073426;28;20443;-55
2023/10/05 07:29:45;;;;;;;6.87;2.60;;;18.20;44.00;;;;;;5072563;28;20236;-52
2023/10/05 07:32:14;;;;;;;10.23;3.10;;;;;;;;;;5073303;28;20446;-54
2023/10/05 07:34:41;;;;;;;5.88;2.13;;;18.40;43.10;;;;;;5072907;28;20197;-52
2023/10/05 07:37:11;;;;;;;9.95;2.17;;;18.50;43.10;;;;;;5073174;28;20192;-51
2023/10/05 07:39:41;;;;;;;6.97;2.17;;;18.50;42.30;;;;;;5089681;28;20665;-54
2023/10/05 07:42:08;;;;;;;16.05;1.75;;;18.60;42.40;;;;;;5073100;28;20646;-52
2023/10/05 07:44:37;;;;;;;10.93;2.70;;;18.60;42.30;;;;;;5072825;28;20238;-53
2023/10/05 07:47:07;;;;;;;6.40;1.90;;;;;;;;;;5072965;28;20180;-55
2023/10/05 07:49:36;;;;;;;6.82;1.85;;;18.90;42.50;;;;;;5083170;28;20196;-52
2023/10/05 07:52:03;;;;;;;5.93;2.10;;;18.90;42.10;;;;;;5093318;28;20183;-52
2023/10/05 07:54:31;;;;;;;13.48;2.42;;;19.00;42.40;;;;;;5092830;28;20203;-54
2023/10/05 07:56:57;;;;;;;11.60;3.22;;;19.10;42.30;;;;;;5088208;28;20666;-51
2023/10/05 07:59:23;;;;;;;11.20;2.60;;;;;;;;;;5073022;28;20201;-51
2023/10/05 08:01:52;;;;;;;7.82;2.17;;;;;;;;;;5073010;28;20237;-54
2023/10/05 08:04:19;;;;;;;8.93;2.20;;;19.10;41.00;;;;;;5072692;28;20185;-55
2023/10/05 08:06:45;;;;;;;8.75;2.95;;;19.10;40.80;;;;;;5073031;28;20665;-53
2023/10/05 08:09:20;;;;;;;8.05;2.03;;;;;;;;;;5072682;28;20208;-53
2023/10/05 08:11:47;;;;;;;8.65;2.30;;;19.10;40.50;;;;;;5072862;28;20172;-55
2023/10/05 08:14:13;;;;;;;9.77;1.77;;;;;;;;;;5072608;28;20211;-53
2023/10/05 08:16:39;;;;;;;7.13;2.25;;;;;;;;;;5072793;28;20184;-53
2023/10/05 08:19:05;;;;;;;7.03;2.00;;;19.10;39.90;;;;;;5079098;28;20195;-53
2023/10/05 08:21:32;;;;;;;9.13;2.90;;;19.10;40.40;;;;;;5092788;28;20187;-51
2023/10/05 08:23:58;;;;;;;5.82;1.63;;;19.20;41.20;;;;;;5092681;28;20422;-51
2023/10/05 08:26:28;;;;;;;9.17;3.07;;;19.30;40.40;;;;;;5092889;28;20187;-56
2023/10/05 08:28:55;;;;;;;10.38;2.95;;;19.40;40.00;;;;;;5091738;28;20441;-54
2023/10/05 08:31:25;;;;;;;6.88;1.38;;;;;;;;;;5092928;28;20266;-51
2023/10/05 08:33:54;;;;;;;9.80;2.38;;;19.70;40.70;;;;;;5092253;28;20274;-55
2023/10/05 08:36:21;;;;;;;6.07;1.45;;;19.80;40.40;;;;;;5092918;28;20176;-53
2023/10/05 08:38:54;;;;;;;20.27;1.85;;;;;;;;;;5093255;28;20195;-56
2023/10/05 08:41:34;;;;;;;11.10;1.88;;;20.10;39.00;;;;;;5091804;28;20176;-53
2023/10/05 08:44:01;;;;;;;12.52;2.65;;;20.20;39.40;;;;;;5092685;28;20176;-51
2023/10/05 08:46:28;;;;;;;8.70;1.67;;;20.30;39.20;;;;;;5075351;28;20180;-55
2023/10/05 08:48:57;;;;;;;9.10;1.70;;;20.30;38.50;;;;;;5072529;28;20280;-52
2023/10/05 08:51:24;;;;;;;16.63;2.75;;;;;;;;;;5072378;28;20566;-53
2023/10/05 08:53:55;;;;;;;10.15;1.65;;;20.40;38.00;;;;;;5072198;28;20224;-52
2023/10/05 08:56:22;;;;;;;6.80;1.65;;;;;;;;;;5072426;28;20184;-53
2023/10/05 08:58:51;;;;;;;10.45;2.05;;;20.70;37.90;;;;;;5064049;28;20674;-53
2023/10/05 09:01:31;;;;;;;7.65;2.10;;;20.70;37.30;;;;;;5072027;28;20584;-55
2023/10/05 09:04:01;;;;;;;10.90;2.78;;;;;;;;;;5071988;28;20192;-52
2023/10/05 09:06:28;;;;;;;8.87;2.00;;;;;;;;;;5072156;28;20230;-52
2023/10/05 09:11:33;;;;;;;12.77;2.87;;;;;;;;;;5072839;28;20198;-53
2023/10/05 09:14:12;;;;;;;6.50;1.50;;;20.40;38.10;;;;;;5091883;28;20461;-56
2023/10/05 09:16:43;;;;;;;8.77;2.40;;;;;;;;;;5092030;28;20191;-51
2023/10/05 09:19:13;;;;;;;6.87;1.87;;;;;;;;;;5091966;28;20203;-54
2023/10/05 09:21:50;;;;;;;10.07;2.70;;;20.30;37.80;;;;;;5091806;28;20402;-55
2023/10/05 09:24:22;;;;;;;4.90;1.27;;;20.30;37.30;;;;;;5091759;28;20291;-52
2023/10/05 09:27:15;;;;;;;8.13;1.85;;;20.40;37.30;;;;;;5063476;28;20175;-54
2023/10/05 09:29:42;;;;;;;7.80;1.53;;;;;;;;;;5072019;28;20208;-52
2023/10/05 09:32:25;;;;;;;8.73;2.10;;;;;;;;;;5070361;28;20415;-52
2023/10/05 09:34:55;;;;;;;8.68;1.83;;;20.60;36.60;;;;;;5071454;28;20482;-52
2023/10/05 09:37:24;;;;;;;7.07;1.50;;;20.70;37.70;;;;;;5071826;28;20173;-51
2023/10/05 09:39:53;;;;;;;9.23;1.43;;;;;;;;;;5072046;28;20263;-54
2023/10/05 09:42:26;;;;;;;9.60;1.67;;;;;;;;;;5070751;28;20808;-52
2023/10/05 09:44:52;;;;;;;8.23;1.63;;;;;;;;;;5071387;28;20486;-55
2023/10/05 09:47:33;;;;;;;9.60;1.90;;;21.30;37.40;;;;;;5074708;28;20493;-52
2023/10/05 09:50:01;;;;;;;6.17;1.60;;;21.40;36.10;;;;;;5075778;28;20433;-54
2023/10/05 09:52:37;;;;;;;9.23;2.07;;;21.50;36.30;;;;;;5074171;28;20488;-53
2023/10/05 09:55:07;;;;;;;9.70;1.83;;;;;;;;;;5075443;28;20445;-52
2023/10/05 09:57:41;;;;;;;18.97;2.70;;;21.90;36.40;;;;;;5075396;28;20438;-53
2023/10/05 10:00:29;;;;;;;12.93;2.47;;;;;;;;;;5075723;28;20430;-52
2023/10/05 10:02:59;;;;;;;16.43;2.47;;;;;;;;;;5074945;28;20490;-52
2023/10/05 10:06:07;;;;;;;14.07;2.20;;;22.30;36.50;;;;;;5074133;28;20442;-54
2023/10/05 10:08:35;;;;;;;12.40;2.07;;;;;;;;;;5074810;28;20492;-51
2023/10/05 10:11:18;;;;;;;9.87;1.97;;;22.30;34.60;;;;;;5075346;28;20925;-55
2023/10/05 10:14:09;;;;;;;10.47;1.63;;;22.20;34.60;;;;;;5074902;28;20523;-54
2023/10/05 10:16:42;;;;;;;8.80;1.67;;;22.10;34.60;;;;;;5075236;28;20457;-55
2023/10/05 10:19:21;;;;;;;11.70;1.90;;;22.00;34.50;;;;;;5075029;28;20487;-55
2023/10/05 10:21:57;;;;;;;10.40;1.70;;;;;;;;;;5074919;28;20403;-54
2023/10/05 10:24:28;;;;;;;9.50;1.53;;;;;;;;;;5074810;28;20490;-54
2023/10/05 10:27:08;;;;;;;11.73;1.50;;;;;;;;;;5066240;28;20474;-54
2023/10/05 10:29:42;;;;;;;16.87;2.97;;;21.60;34.70;;;;;;5083193;28;20440;-52
2023/10/05 10:32:21;;;;;;;10.63;1.63;;;;;;;;;;5094938;28;20412;-54
2023/10/05 10:34:55;;;;;;;14.50;2.37;;;21.60;33.90;;;;;;5094900;28;20461;-53
2023/10/05 10:37:40;;;;;;;12.00;2.20;;;21.60;34.90;;;;;;5095301;28;20402;-53
2023/10/05 10:45:40;;;;;;;18.20;3.00;;;;;;;;;;5094586;28;20803;-54
2023/10/05 10:48:12;;;;;;;11.30;2.37;;;22.10;33.60;;;;;;5094495;28;20475;-55
2023/10/05 10:50:39;;;;;;;16.07;2.53;;;22.20;33.30;;;;;;5094573;28;20501;-53
2023/10/05 10:53:16;;;;;;;19.97;2.83;;;22.10;33.30;;;;;;5093021;28;20768;-54
2023/10/05 10:55:58;;;;;;;14.63;2.07;;;22.10;32.70;;;;;;5083377;28;20998;-51
2023/10/05 10:58:26;;;;;;;6.50;1.30;;;;;;;;;;5074046;28;20440;-53
2023/10/05 11:01:13;;;;;;;10.53;1.93;;;;;;;;;;5074076;28;20407;-54
2023/10/05 11:03:41;;;;;;;13.47;2.37;;;22.20;33.80;;;;;;5073719;28;20505;-53
2023/10/05 11:06:09;;;;;;;12.33;2.10;;;22.20;33.00;;;;;;5073879;28;20540;-52
2023/10/05 11:08:40;;;;;;;11.17;1.97;;;;;;;;;;5074027;28;20466;-53
2023/10/05 11:11:15;;;;;;;10.37;1.67;;;21.80;32.90;;;;;;5074063;28;20411;-52
2023/10/05 11:14:00;;;;;;;13.73;2.63;;;21.90;33.50;;;;;;5073398;28;20488;-55
2023/10/05 11:16:43;;;;;;;8.03;1.63;;;;;;;;;;5073725;28;20407;-52
2023/10/05 11:19:13;;;;;;;10.03;2.23;;;;;;;;;;5073886;28;20418;-56
2023/10/05 11:21:46;;;;;;;12.47;2.27;;;;;;;;;;5073671;28;20411;-53
2023/10/05 11:24:16;;;;;;;9.97;2.50;;;;;;;;;;5073821;28;20407;-53
2023/10/05 11:29:28;;;;;;;8.83;2.10;;;21.10;33.00;;;;;;5073289;28;20430;-50
2023/10/05 11:32:01;;;;;;;9.03;1.67;;;21.10;33.90;;;;;;5073310;28;20449;-52
2023/10/05 11:34:38;;;;;;;7.13;1.60;;;21.20;34.20;;;;;;5080459;28;20457;-50
2023/10/05 11:37:15;;;;;;;8.97;1.90;;;21.20;33.50;;;;;;5093462;28;20417;-51
2023/10/05 11:39:41;;;;;;;19.23;3.20;;;21.20;33.50;;;;;;5093046;28;20432;-53
2023/10/05 11:42:10;;;;;;;8.07;1.43;;;21.30;34.00;;;;;;5093178;28;20425;-53
2023/10/05 11:44:38;;;;;;;6.43;1.93;;;21.30;34.10;;;;;;5093068;28;20414;-50
2023/10/05 11:47:07;;;;;;;10.00;2.10;;;;;;;;;;5087783;28;20446;-50
2023/10/05 11:49:33;;;;;;;8.07;1.57;;;21.40;33.90;;;;;;5072757;28;20434;-54
2023/10/05 11:52:03;;;;;;;9.57;1.93;;;21.40;34.20;;;;;;5071446;28;20465;-51
2023/10/05 11:54:31;;;;;;;9.60;2.03;;;21.50;34.20;;;;;;5072677;28;20504;-49
2023/10/05 11:56:59;;;;;;;7.30;1.47;;;21.50;34.20;;;;;;5073021;28;20407;-53
2023/10/05 11:59:28;;;;;;;6.63;1.37;;;;;;;;;;5072633;28;20457;-50
2023/10/05 12:01:54;;;;;;;8.87;1.43;;;21.50;33.50;;;;;;5071319;28;20921;-50
2023/10/05 12:04:20;;;;;;;9.30;1.63;;;;;;;;;;5088366;28;20452;-53
2023/10/05 12:06:58;;;;;;;9.97;2.07;;;;;;;;;;5092713;28;20406;-52
2023/10/05 12:09:32;;;;;;;11.57;1.80;;;21.50;34.20;;;;;;5092033;28;20422;-50
2023/10/05 12:12:10;;;;;;;10.80;1.50;;;21.50;33.40;;;;;;5092804;28;20410;-50
2023/10/05 12:14:36;;;;;;;12.53;2.37;;;21.60;33.60;;;;;;5092348;28;20587;-52
2023/10/05 12:17:05;;;;;;;11.97;2.67;;;21.60;33.00;;;;;;5079044;28;20411;-50
2023/10/05 12:19:33;;;;;;;9.87;1.63;;;;;;;;;;5072337;28;20430;-51
2023/10/05 12:22:01;;;;;;;9.00;1.73;;;21.60;32.40;;;;;;5072307;28;20408;-53
2023/10/05 12:24:27;;;;;;;10.23;1.93;;;;;;;;;;5072077;28;20415;-51
2023/10/05 12:26:55;;;;;;;12.70;2.10;;;21.50;33.40;;;;;;5072221;28;20526;-50
2023/10/05 12:29:21;;;;;;;11.57;2.10;;;;;;;;;;5072173;28;20466;-53
2023/10/05 12:31:49;;;;;;;12.17;1.97;;;21.50;33.40;;;;;;5071967;28;20417;-50
2023/10/05 12:34:16;;;;;;;9.37;1.67;;;;;;;;;;5072071;28;20454;-50
2023/10/05 12:36:48;;;;;;;13.13;2.17;;;;;;;;;;5072159;28;20407;-53
2023/10/05 12:39:14;;;;;;;11.37;2.10;;;;;;;;;;5072079;28;20838;-51
2023/10/05 12:41:42;;;;;;;10.40;2.00;;;21.60;32.90;;;;;;5071934;28;20816;-50
2023/10/05 12:44:13;;;;;;;19.93;3.10;;;21.70;33.40;;;;;;5071659;28;20480;-49
2023/10/05 12:46:46;;;;;;;12.37;2.70;;;21.80;33.40;;;;;;5071876;28;20921;-48
2023/10/05 12:49:16;;;;;;;9.10;1.77;;;21.90;32.80;;;;;;5071983;28;20442;-53
2023/10/05 12:51:44;;;;;;;13.33;1.67;;;;;;;;;;5071791;28;20407;-50
2023/10/05 12:54:18;;;;;;;8.50;1.80;;;;;;;;;;5071659;28;20455;-51
2023/10/05 12:56:49;;;;;;;10.57;2.47;;;;;;;;;;5082535;28;20398;-51
2023/10/05 12:59:15;;;;;;;8.43;2.30;;;;;;;;;;5091899;28;20418;-53
2023/10/05 13:01:41;;;;;;;9.07;1.83;;;;;;;;;;5091769;28;20416;-49
2023/10/05 13:04:11;;;;;;;7.80;1.67;;;22.40;33.20;;;;;;5090352;28;20426;-51
2023/10/05 13:06:38;;;;;;;12.83;2.03;;;;;;;;;;5092346;28;20414;-52
2023/10/05 13:09:11;;;;;;;16.43;2.43;;;22.40;31.20;;;;;;5091698;28;20438;-50
2023/10/05 13:11:39;;;;;;;11.07;2.50;;;;;;;;;;5091756;28;20733;-51
2023/10/05 13:14:08;;;;;;;5.90;1.23;;;22.40;31.90;;;;;;5091585;28;20485;-50
2023/10/05 13:16:40;;;;;;;7.83;1.47;;;22.30;31.90;;;;;;5090616;28;20875;-52
2023/10/05 13:19:09;;;;;;;6.37;1.30;;;;;;;;;;5071846;28;20455;-50
2023/10/05 13:21:36;;;;;;;10.00;2.10;;;;;;;;;;5074753;28;20406;-51
2023/10/05 13:24:02;;;;;;;6.50;1.20;;;22.40;32.10;;;;;;5074325;28;20411;-51
2023/10/05 13:26:30;;;;;;;10.20;1.93;;;;;;;;;;5075782;28;20410;-52
2023/10/05 13:29:07;;;;;;;8.10;1.63;;;;;;;;;;5075577;28;20484;-50
2023/10/05 13:31:33;;;;;;;14.00;2.30;;;22.50;31.20;;;;;;5075510;28;20815;-51
2023/10/05 13:33:59;;;;;;;7.80;1.40;;;22.40;31.70;;;;;;5079895;28;20453;-53
2023/10/05 13:36:27;;;;;;;10.73;2.10;;;;;;;;;;5096000;28;20254;-50
2023/10/05 13:38:54;;;;;;;8.87;1.47;;;22.30;31.90;;;;;;5067426;28;20419;-52
2023/10/05 13:41:21;;;;;;;9.67;1.67;;;22.20;32.20;;;;;;5074048;28;20947;-52
2023/10/05 13:43:49;;;;;;;11.90;2.30;;;22.10;32.00;;;;;;5075115;28;20913;-51
2023/10/05 13:46:17;;;;;;;7.50;1.70;;;22.20;32.80;;;;;;5075318;28;20410;-53
2023/10/05 13:48:44;;;;;;;13.23;2.53;;;22.30;32.10;;;;;;5094092;28;20791;-53
2023/10/05 13:51:17;;;;;;;8.80;1.90;;;;;;;;;;5089425;28;20442;-50
2023/10/05 13:53:45;;;;;;;9.63;2.17;;;22.00;31.00;;;;;;5075017;28;20408;-53